East Lynn, Illinois
Current Conditions -  °F | °C
As of 10:35 PM on Friday 24 Oct 2014 (Local Time) from KDNV Reporting Station
Haze Haze  
Wind Chill: 53°   Ceiling: Unl
Heat Index: 53°   Visibility: 3mi
Dew Point: 52°   Wind: 0mph
Humidity: 98%   Direction: NA
Pressure: 29.98"   Gusts: NA
Location:  40.47°N, 87.8°W
Report Text: KDNV 250335Z AUTO 00000KT 3SM BR CLR 12/11 A2998 RMK AO2 T01150112
Loading
Personal Weather Stations






























Interactive Weather Map
Tropical Storm Tracking
New forecast layout! Learn more

10-Day Weather Forecast

Advertisements
Track Severe Weather on mobile